D/T METAR WX W/DIR W/SPE G/SPE TEMP DEWP
25/05/20 19:20 EGMD 251820Z AUTO 20005KT 9999 NCD 19/12 Q1034 SSW (200°) 5.8mph 19°C 12°C
25/05/20 18:50 EGMD 251750Z AUTO 20005KT 170V230 9999 NCD 20/12 Q1035 SSW (200°) 5.8mph 20°C 12°C
25/05/20 18:20 EGMD 251720Z AUTO 19005KT 110V220 9999 NCD 20/12 Q1035 S (190°) 5.8mph 20°C 12°C
25/05/20 17:50 EGMD 251650Z AUTO VRB04KT 9999 NCD 20/12 Q1035 N (0°) 4.6mph 20°C 12°C
25/05/20 17:20 EGMD 251620Z AUTO 19005KT 130V220 9999 NCD 20/13 Q1035 S (190°) 5.8mph 20°C 13°C
25/05/20 16:50 EGMD 251550Z AUTO 14006KT 090V190 9999 NCD 20/13 Q1035 SE (140°) 6.9mph 20°C 13°C
25/05/20 16:20 EGMD 251520Z AUTO 13006KT 100V210 9999 NCD 20/13 Q1035 SE (130°) 6.9mph 20°C 13°C
25/05/20 15:50 EGMD 251450Z AUTO 11008KT 9999 NCD 21/12 Q1035 ESE (110°) 9.2mph 21°C 12°C
25/05/20 15:20 EGMD 251420Z AUTO 17006KT 110V220 9999 NCD 21/13 Q1035 S (170°) 6.9mph 21°C 13°C
25/05/20 14:50 EGMD 251350Z AUTO 11007KT 9999 NCD 21/12 Q1035 ESE (110°) 8.1mph 21°C 12°C
25/05/20 13:50 EGMD 251250Z AUTO 12007KT 9999 NCD 21/13 Q1035 ESE (120°) 8.1mph 21°C 13°C
25/05/20 13:20 EGMD 251220Z AUTO 12008KT 9999 NCD 21/14 Q1035 ESE (120°) 9.2mph 21°C 14°C
25/05/20 12:50 EGMD 251150Z AUTO 12008KT 9999 NCD 21/14 Q1035 ESE (120°) 9.2mph 21°C 14°C
25/05/20 12:20 EGMD 251120Z AUTO 12008KT 9999 NCD 20/14 Q1035 ESE (120°) 9.2mph 20°C 14°C
25/05/20 11:50 EGMD 251050Z AUTO 12008KT 9999 NCD 20/14 Q1035 ESE (120°) 9.2mph 20°C 14°C
25/05/20 10:50 EGMD 250950Z AUTO 10006KT 9999 NCD 19/14 Q1035 E (100°) 6.9mph 19°C 14°C
25/05/20 10:20 EGMD 250920Z AUTO 09006KT 9999 NCD 19/14 Q1035 E (90°) 6.9mph 19°C 14°C
25/05/20 09:50 EGMD 250850Z AUTO 09006KT 9999 NCD 18/14 Q1035 E (90°) 6.9mph 18°C 14°C
25/05/20 09:20 EGMD 250820Z AUTO 09007KT 9999 NCD 18/14 Q1035 E (90°) 8.1mph 18°C 14°C
25/05/20 08:50 EGMD 250750Z AUTO 08007KT 9999 NCD 18/14 Q1035 E (80°) 8.1mph 18°C 14°C
25/05/20 08:20 EGMD 250720Z AUTO 08008KT 9999 NCD 17/14 Q1035 E (80°) 9.2mph 17°C 14°C
25/05/20 07:50 EGMD 250650Z AUTO 07006KT 9999 NCD 16/14 Q1035 ENE (70°) 6.9mph 16°C 14°C
25/05/20 06:50 EGMD 250550Z AUTO 35003KT 9999 NCD 12/12 Q1035 N (350°) 3.5mph 12°C 12°C
25/05/20 06:20 EGMD 250520Z AUTO 31004KT 9999 NCD 11/11 Q1034 NW (310°) 4.6mph 11°C 11°C
25/05/20 05:50 EGMD 250450Z AUTO 32005KT 9999 NCD 10/10 Q1034 NW (320°) 5.8mph 10°C 10°C
25/05/20 05:20 EGMD 250420Z AUTO 32005KT 9999 NCD 09/09 Q1034 NW (320°) 5.8mph 9°C 9°C
25/05/20 04:50 EGMD 250350Z AUTO 33005KT 9999 NCD 09/09 Q1034 NNW (330°) 5.8mph 9°C 9°C
25/05/20 04:20 EGMD 250320Z AUTO 35005KT 9999 NCD 09/09 Q1034 N (350°) 5.8mph 9°C 9°C
25/05/20 03:50 EGMD 250250Z AUTO 35006KT 8000 NCD 09/09 Q1034 N (350°) 6.9mph 9°C 9°C
25/05/20 03:20 EGMD 250220Z AUTO 35005KT 9000 NCD 09/09 Q1034 N (350°) 5.8mph 9°C 9°C
25/05/20 02:50 EGMD 250150Z AUTO 34005KT 9999 NCD 10/10 Q1034 NNW (340°) 5.8mph 10°C 10°C
25/05/20 01:50 EGMD 250050Z AUTO 32004KT 9999 NCD 10/10 Q1033 NW (320°) 4.6mph 10°C 10°C
25/05/20 01:20 EGMD 250020Z AUTO VRB02KT 9000 NCD 10/10 Q1033 N (0°) 2.3mph 10°C 10°C
25/05/20 00:50 EGMD 242350Z AUTO 02003KT 9999 NCD 10/10 Q1033 NNE (20°) 3.5mph 10°C 10°C
25/05/20 00:20 EGMD 242320Z AUTO VRB03KT 9999 FEW001/// 11/11 Q1033 N (0°) 3.5mph 11°C 11°C
24/05/20 23:50 EGMD 242250Z AUTO 31003KT 9999 NCD 12/12 Q1033 NW (310°) 3.5mph 12°C 12°C
24/05/20 23:20 EGMD 242220Z AUTO 32004KT 9999 NCD 12/12 Q1033 NW (320°) 4.6mph 12°C 12°C
24/05/20 22:50 EGMD 242150Z AUTO VRB02KT 9999 NCD 12/11 Q1033 N (0°) 2.3mph 12°C 11°C
24/05/20 22:20 EGMD 242120Z AUTO VRB01KT 9999 NCD 13/12 Q1033 N (0°) 1.2mph 13°C 12°C
24/05/20 21:50 EGMD 242050Z AUTO VRB02KT 9999 NCD 14/12 Q1032 N (0°) 2.3mph 14°C 12°C
24/05/20 21:20 EGMD 242020Z AUTO 23005KT 210V270 9999 NCD 15/14 Q1032 SW (230°) 5.8mph 15°C 14°C
24/05/20 20:20 EGMD 241920Z AUTO 22006KT 9999 NCD 15/14 Q1032 SW (220°) 6.9mph 15°C 14°C
24/05/20 19:50 EGMD 241850Z AUTO 22012KT 9999 NCD 15/13 Q1032 SW (220°) 13.8mph 15°C 13°C
24/05/20 19:20 EGMD 241820Z AUTO 23013KT 9999 NCD 15/13 Q1032 SW (230°) 15.0mph 15°C 13°C
24/05/20 18:50 EGMD 241750Z AUTO 22012KT 9999 NCD 15/13 Q1032 SW (220°) 13.8mph 15°C 13°C
24/05/20 18:20 EGMD 241720Z AUTO 22014KT 9999 NCD 16/13 Q1031 SW (220°) 16.1mph 16°C 13°C
24/05/20 17:50 EGMD 241650Z AUTO 23016KT 9999 NCD 15/13 Q1031 SW (230°) 18.4mph 15°C 13°C
24/05/20 17:20 EGMD 241620Z AUTO 23015KT 9999 NCD 15/13 Q1031 SW (230°) 17.3mph 15°C 13°C
24/05/20 16:50 EGMD 241550Z AUTO 23016KT 9999 NCD 16/14 Q1031 SW (230°) 18.4mph 16°C 14°C
24/05/20 16:20 EGMD 241520Z AUTO 23016KT 9999 NCD 15/13 Q1031 SW (230°) 18.4mph 15°C 13°C
24/05/20 15:50 EGMD 241450Z AUTO 23015KT 9999 NCD 15/13 Q1031 SW (230°) 17.3mph 15°C 13°C
24/05/20 15:20 EGMD 241420Z AUTO 24016KT 9999 NCD 15/13 Q1031 WSW (240°) 18.4mph 15°C 13°C
24/05/20 14:50 EGMD 241350Z AUTO 23016KT 9999 SCT047/// 16/13 Q1031 SW (230°) 18.4mph 16°C 13°C
24/05/20 14:20 EGMD 241320Z AUTO 23018KT 9999 BKN044/// 15/13 Q1031 SW (230°) 20.7mph 15°C 13°C
24/05/20 13:50 EGMD 241250Z AUTO 23017KT 9999 BKN041/// BKN048/// 17/14 Q1031 SW (230°) 19.6mph 17°C 14°C
24/05/20 13:20 EGMD 241220Z AUTO 23017KT 9999 SCT036/// BKN044/// 17/13 Q1031 SW (230°) 19.6mph 17°C 13°C
24/05/20 12:50 EGMD 241150Z AUTO 22015KT 9999 FEW033/// BKN039/// 18/13 Q1031 SW (220°) 17.3mph 18°C 13°C
24/05/20 12:20 EGMD 241120Z AUTO 22014KT 9999 FEW027/// BKN034/// BKN041/// 18/13 Q1031 SW (220°) 16.1mph 18°C 13°C
24/05/20 11:50 EGMD 241050Z AUTO 28011KT 250V310 9999 SCT032/// BKN037/// 19/12 Q1031 W (280°) 12.7mph 19°C 12°C
24/05/20 10:50 EGMD 240950Z AUTO 29013KT 260V320 9999 FEW028/// 18/12 Q1031 WNW (290°) 15.0mph 18°C 12°C
24/05/20 10:20 EGMD 240920Z AUTO 29016KT 260V320 9999 SCT026/// BKN031/// BKN037/// 18/12 Q1031 WNW (290°) 18.4mph 18°C 12°C
24/05/20 09:50 EGMD 240850Z AUTO 28013KT 250V320 9999 BKN024/// 16/12 Q1031 W (280°) 15.0mph 16°C 12°C
24/05/20 09:20 EGMD 240820Z AUTO 27013KT 230V290 9999 SCT024/// BKN029/// 17/12 Q1030 W (270°) 15.0mph 17°C 12°C
24/05/20 08:50 EGMD 240750Z AUTO 27012KT 9999 FEW015/// 16/12 Q1030 W (270°) 13.8mph 16°C 12°C
24/05/20 08:20 EGMD 240720Z AUTO 28012KT 9999 NCD 14/11 Q1030 W (280°) 13.8mph 14°C 11°C
24/05/20 07:50 EGMD 240650Z AUTO 27012KT 9999 NCD 14/11 Q1030 W (270°) 13.8mph 14°C 11°C
24/05/20 07:20 EGMD 240620Z AUTO 28011KT 9999 NCD 13/10 Q1030 W (280°) 12.7mph 13°C 10°C
24/05/20 06:50 EGMD 240550Z AUTO 27010KT 9999 NCD 12/10 Q1029 W (270°) 11.5mph 12°C 10°C
24/05/20 06:20 EGMD 240520Z AUTO 27011KT 9999 NCD 12/09 Q1029 W (270°) 12.7mph 12°C 9°C
24/05/20 05:50 EGMD 240450Z AUTO 27011KT 9999 NCD 11/09 Q1029 W (270°) 12.7mph 11°C 9°C
24/05/20 05:20 EGMD 240420Z AUTO 27012KT 9999 NCD 11/08 Q1029 W (270°) 13.8mph 11°C 8°C
24/05/20 04:50 EGMD 240350Z AUTO 27012KT 9999 NCD 11/08 Q1028 W (270°) 13.8mph 11°C 8°C
24/05/20 04:20 EGMD 240320Z AUTO 27012KT 9999 NCD 11/08 Q1028 W (270°) 13.8mph 11°C 8°C
24/05/20 03:50 EGMD 240250Z AUTO 27012KT 9999 NCD 11/08 Q1028 W (270°) 13.8mph 11°C 8°C
24/05/20 03:20 EGMD 240220Z AUTO 26011KT 9999 NCD 11/08 Q1028 W (260°) 12.7mph 11°C 8°C
24/05/20 02:50 EGMD 240150Z AUTO 26010KT 9999 NCD 11/08 Q1028 W (260°) 11.5mph 11°C 8°C
24/05/20 02:20 EGMD 240120Z AUTO 26010KT 9999 NCD 11/08 Q1028 W (260°) 11.5mph 11°C 8°C
24/05/20 01:50 EGMD 240050Z AUTO 26011KT 9999 NCD 11/09 Q1028 W (260°) 12.7mph 11°C 9°C
24/05/20 00:50 EGMD 232350Z AUTO 26012KT 9999 NCD 12/09 Q1028 W (260°) 13.8mph 12°C 9°C
24/05/20 00:20 EGMD 232320Z AUTO 26013KT 9999 NCD 12/10 Q1028 W (260°) 15.0mph 12°C 10°C
23/05/20 23:50 EGMD 232250Z AUTO 26013KT 9999 NCD 12/10 Q1028 W (260°) 15.0mph 12°C 10°C
23/05/20 23:20 EGMD 232220Z AUTO 26013KT 9999 NCD 13/11 Q1027 W (260°) 15.0mph 13°C 11°C
23/05/20 22:50 EGMD 232150Z AUTO 25014KT 9999 NCD 13/11 Q1027 WSW (250°) 16.1mph 13°C 11°C
23/05/20 22:20 EGMD 232120Z AUTO 25015KT 9999 NCD 13/11 Q1027 WSW (250°) 17.3mph 13°C 11°C
23/05/20 21:50 EGMD 232050Z AUTO 25016KT 9999 NCD 13/11 Q1027 WSW (250°) 18.4mph 13°C 11°C
23/05/20 21:20 EGMD 232020Z AUTO 25017KT 9999 NCD 13/11 Q1026 WSW (250°) 19.6mph 13°C 11°C
23/05/20 20:50 EGMD 231950Z AUTO 25018KT 9999 NCD 14/11 Q1026 WSW (250°) 20.7mph 14°C 11°C
23/05/20 20:20 EGMD 231920Z AUTO 25016KT 9999 NCD 14/11 Q1026 WSW (250°) 18.4mph 14°C 11°C
23/05/20 19:50 EGMD 231850Z AUTO 24019KT 9999 NCD 14/12 Q1026 WSW (240°) 21.9mph 14°C 12°C
23/05/20 19:20 EGMD 231820Z AUTO 25020KT 9999 NCD 15/11 Q1025 WSW (250°) 23.0mph 15°C 11°C
23/05/20 18:50 EGMD 231750Z AUTO 24023KT 9999 NCD 15/11 Q1025 WSW (240°) 26.5mph 15°C 11°C
23/05/20 18:20 EGMD 231720Z AUTO 24023KT 9999 FEW028/// 16/11 Q1025 WSW (240°) 26.5mph 16°C 11°C
23/05/20 17:50 EGMD 231650Z AUTO 24024KT 9999 FEW027/// 15/12 Q1025 WSW (240°) 27.6mph 15°C 12°C
23/05/20 17:20 EGMD 231620Z AUTO 24023KT 9999 NCD 15/12 Q1025 WSW (240°) 26.5mph 15°C 12°C
23/05/20 16:50 EGMD 231550Z AUTO 24024G34KT 9999 FEW027/// 16/10 Q1025 WSW (240°) 27.6mph 39.1mph 16°C 10°C
23/05/20 16:20 EGMD 231520Z AUTO 25023KT 9999 SCT026/// BKN031/// 16/11 Q1025 WSW (250°) 26.5mph 16°C 11°C